Beloit, Wisconsin
Current Conditions -  °F | °C
As of 6:45 PM on Tuesday 27 Jan 2015 (Local Time) from KJVL Reporting Station
Overcast Overcast  
Wind Chill: 30°   Ceiling: 2600
Heat Index: 30°   Visibility: 10mi
Dew Point: 27°   Wind: 0mph
Humidity: 86%   Direction: NA
Pressure: 30.22"   Gusts: NA
Location:  42.51°N, 89.03°W
Report Text: KJVL 280045Z 00000KT 10SM OVC026 M01/M03 A3022
Loading
Personal Weather Stations






























Interactive Weather Map New forecast layout! Learn more

10-Day Weather Forecast

Advertisements
Track Severe Weather on mobile